Time;durP1;ratioP1;P1;durP2;ratioP2;P2;SDS_P1;SDS_P2;PMS_P1;PMS_P2;Temp;Humidity;BMP_temperature;BMP_pressure;BME280_temperature;BME280_humidity;BME280_pressure;Samples;Min_cycle;Max_cycle;Signal;HPM_P1;HPM_P2
2021/12/13 00:01:13;;;;;;;;;;;;;;;;;;5095518;28;20328;-72
2021/12/13 00:03:39;;;;;;;;;;;;;;;;;;5096945;28;19911;-72
2021/12/13 00:06:05;;;;;;;;;;;;;;;;;;5096885;28;20367;-72
2021/12/13 00:08:31;;;;;;;;;;;;;;;;;;5096891;28;19912;-72
2021/12/13 00:10:56;;;;;;;;;;;;;;;;;;5096574;28;19920;-72
2021/12/13 00:13:22;;;;;;;;;;;;;;;;;;5096624;28;19916;-72
2021/12/13 00:15:48;;;;;;;;;;;;;;;;;;5078377;28;19947;-72
2021/12/13 00:18:14;;;;;;;;;;;;;;;;;;5096537;28;20279;-72
2021/12/13 00:20:40;;;;;;;;;;;;;;;;;;5096618;28;20510;-72
2021/12/13 00:23:06;;;;;;;;;;;;;;;;;;5096480;28;19908;-72
2021/12/13 00:25:32;;;;;;;;;;;;;;;;;;5096524;28;19998;-72
2021/12/13 00:27:58;;;;;;;;;;;;;;;;;;5096376;28;19908;-72
2021/12/13 00:30:24;;;;;;;;;;;;;;;;;;5096379;28;19962;-72
2021/12/13 00:32:49;;;;;;;;;;;;;;;;;;5077804;28;19966;-72
2021/12/13 00:35:15;;;;;;;;;;;;;;;;;;5096200;28;20007;-72
2021/12/13 00:37:41;;;;;;;;;;;;;;;;;;5096112;28;19910;-72
2021/12/13 00:40:07;;;;;;;;;;;;;;;;;;5096210;28;19915;-72
2021/12/13 00:42:33;;;;;;;;;;;;;;;;;;5077797;28;19911;-72
2021/12/13 00:44:59;;;;;;;;;;;;;;;;;;5077748;28;19956;-72
2021/12/13 00:47:25;;;;;;;;;;;;;;;;;;5096108;28;20287;-72
2021/12/13 00:49:51;;;;;;;;;;;;;;;;;;5095902;28;19908;-72
2021/12/13 00:52:17;;;;;;;;;;;;;;;;;;5095674;28;19916;-72
2021/12/13 00:54:43;;;;;;;;;;;;;;;;;;5096000;28;19912;-72
2021/12/13 00:57:09;;;;;;;;;;;;;;;;;;5095868;28;19908;-72
2021/12/13 00:59:34;;;;;;;;;;;;;;;;;;5096445;28;20336;-72
2021/12/13 01:02:00;;;;;;;;;;;;;;;;;;5106781;28;20006;-72
2021/12/13 01:04:26;;;;;;;;;;;;;;;;;;5102913;28;20380;-72
2021/12/13 01:06:52;;;;;;;;;;;;;;;;;;5106589;28;19962;-72
2021/12/13 01:09:18;;;;;;;;;;;;;;;;;;5103790;28;19965;-72
2021/12/13 01:11:44;;;;;;;;;;;;;;;;;;5104029;28;20019;-72
2021/12/13 01:14:10;;;;;;;;;;;;;;;;;;5104878;28;19912;-72
2021/12/13 01:16:49;;;;;;;;;;;;;;;;;;5103965;28;19938;-71
2021/12/13 01:21:54;;;;;;;;;;;;;;;;;;5105133;28;19943;-71
2021/12/13 01:24:40;;;;;;;;;;;;;;;;;;5103451;28;19926;-71
2021/12/13 01:27:05;;;;;;;;;;;;;;;;;;5100948;28;20269;-71
2021/12/13 01:29:31;;;;;;;;;;;;;;;;;;5105815;28;20002;-71
2021/12/13 01:31:57;;;;;;;;;;;;;;;;;;5102682;28;19920;-72
2021/12/13 01:34:23;;;;;;;;;;;;;;;;;;5105940;28;19916;-72
2021/12/13 01:36:56;;;;;;;;;;;;;;;;;;5103224;28;19945;-72
2021/12/13 01:39:22;;;;;;;;;;;;;;;;;;5105812;28;19957;-72
2021/12/13 01:41:48;;;;;;;;;;;;;;;;;;5103279;28;19947;-72
2021/12/13 01:44:14;;;;;;;;;;;;;;;;;;5104511;28;19912;-72
2021/12/13 01:46:40;;;;;;;;;;;;;;;;;;5104438;28;20073;-72
2021/12/13 01:49:06;;;;;;;;;;;;;;;;;;5103255;28;19912;-72
2021/12/13 01:51:33;;;;;;;;;;;;;;;;;;5105061;28;19923;-72
2021/12/13 01:53:59;;;;;;;;;;;;;;;;;;5102450;28;19912;-72
2021/12/13 01:56:42;;;;;;;;;;;;;;;;;;5087426;28;19939;-72
2021/12/13 01:59:26;;;;;;;;;;;;;;;;;;5101313;28;19987;-72
2021/12/13 02:01:52;;;;;;;;;;;;;;;;;;5102237;28;19912;-72
2021/12/13 02:04:19;;;;;;;;;;;;;;;;;;5104724;28;19939;-72
2021/12/13 02:06:45;;;;;;;;;;;;;;;;;;5103205;28;19961;-72
2021/12/13 02:09:11;;;;;;;;;;;;;;;;;;5103784;28;19920;-72
2021/12/13 02:11:37;;;;;;;;;;;;;;;;;;5104472;28;20372;-72
2021/12/13 02:14:07;;;;;;;;;;;;;;;;;;5102476;28;19912;-72
2021/12/13 02:19:17;;;;;;;;;;;;;;;;;;5104269;28;19918;-72
2021/12/13 02:21:44;;;;;;;;;;;;;;;;;;5103266;28;19912;-72
2021/12/13 02:24:09;;;;;;;;;;;;;;;;;;5103022;28;19919;-72
2021/12/13 02:26:35;;;;;;;;;;;;;;;;;;5104256;28;19912;-72
2021/12/13 02:29:01;;;;;;;;;;;;;;;;;;5101776;28;19916;-72
2021/12/13 02:31:27;;;;;;;;;;;;;;;;;;5104839;28;19920;-72
2021/12/13 02:33:53;;;;;;;;;;;;;;;;;;5101109;28;19908;-72
2021/12/13 02:36:19;;;;;;;;;;;;;;;;;;5104155;28;20490;-72
2021/12/13 02:38:46;;;;;;;;;;;;;;;;;;5103054;28;19908;-72
2021/12/13 02:41:12;;;;;;;;;;;;;;;;;;5103258;28;19916;-72
2021/12/13 02:43:38;;;;;;;;;;;;;;;;;;5103582;28;19933;-72
2021/12/13 02:46:03;;;;;;;;;;;;;;;;;;5101764;28;20288;-72
2021/12/13 02:48:29;;;;;;;;;;;;;;;;;;5104447;28;19915;-72
2021/12/13 02:50:55;;;;;;;;;;;;;;;;;;5101040;28;19912;-72
2021/12/13 02:53:21;;;;;;;;;;;;;;;;;;5104181;28;19920;-72
2021/12/13 02:55:47;;;;;;;;;;;;;;;;;;5101805;28;20199;-72
2021/12/13 02:58:13;;;;;;;;;;;;;;;;;;5102978;28;19958;-72
2021/12/13 03:00:38;;;;;;;;;;;;;;;;;;5103190;28;19969;-72
2021/12/13 03:03:04;;;;;;;;;;;;;;;;;;5101426;28;19911;-72
2021/12/13 03:05:30;;;;;;;;;;;;;;;;;;5104288;28;19916;-72
2021/12/13 03:07:56;;;;;;;;;;;;;;;;;;5101074;28;19912;-72
2021/12/13 03:10:22;;;;;;;;;;;;;;;;;;5103814;28;19924;-71
2021/12/13 03:12:48;;;;;;;;;;;;;;;;;;5101488;28;19920;-72
2021/12/13 03:15:14;;;;;;;;;;;;;;;;;;5102827;28;20239;-72
2021/12/13 03:17:39;;;;;;;;;;;;;;;;;;5102740;28;19912;-71
2021/12/13 03:20:05;;;;;;;;;;;;;;;;;;5101612;28;20409;-72
2021/12/13 03:22:31;;;;;;;;;;;;;;;;;;5103678;28;19912;-72
2021/12/13 03:24:57;;;;;;;;;;;;;;;;;;5082468;28;19912;-72
2021/12/13 03:27:23;;;;;;;;;;;;;;;;;;5085766;28;19949;-72
2021/12/13 03:29:49;;;;;;;;;;;;;;;;;;5101308;28;19920;-72
2021/12/13 03:32:15;;;;;;;;;;;;;;;;;;5084363;28;19924;-72
2021/12/13 03:34:41;;;;;;;;;;;;;;;;;;5102223;28;19927;-72
2021/12/13 03:37:07;;;;;;;;;;;;;;;;;;5101209;28;19912;-72
2021/12/13 03:39:32;;;;;;;;;;;;;;;;;;5103443;28;19912;-72
2021/12/13 03:41:58;;;;;;;;;;;;;;;;;;5100373;28;19912;-72
2021/12/13 03:44:24;;;;;;;;;;;;;;;;;;5103974;28;20364;-72
2021/12/13 03:46:50;;;;;;;;;;;;;;;;;;5100943;28;20125;-72
2021/12/13 03:49:16;;;;;;;;;;;;;;;;;;5102725;28;19919;-72
2021/12/13 03:51:42;;;;;;;;;;;;;;;;;;5102067;28;19973;-72
2021/12/13 03:54:08;;;;;;;;;;;;;;;;;;5101627;28;19919;-72
2021/12/13 03:56:34;;;;;;;;;;;;;;;;;;5103048;28;19915;-72
2021/12/13 03:59:00;;;;;;;;;;;;;;;;;;5100359;28;19912;-72
2021/12/13 04:01:25;;;;;;;;;;;;;;;;;;5103655;28;20261;-72
2021/12/13 04:03:51;;;;;;;;;;;;;;;;;;5100670;28;19912;-72
2021/12/13 04:06:17;;;;;;;;;;;;;;;;;;5102893;28;19912;-72
2021/12/13 04:08:43;;;;;;;;;;;;;;;;;;5101685;28;19912;-72
2021/12/13 04:11:09;;;;;;;;;;;;;;;;;;5101383;28;20364;-72
2021/12/13 04:13:35;;;;;;;;;;;;;;;;;;5102773;28;19936;-72
2021/12/13 04:16:09;;;;;;;;;;;;;;;;;;5099842;28;20198;-72
2021/12/13 04:21:13;;;;;;;;;;;;;;;;;;5101813;28;20390;-72
2021/12/13 04:23:38;;;;;;;;;;;;;;;;;;5102010;28;19966;-72
2021/12/13 04:26:04;;;;;;;;;;;;;;;;;;5100813;28;20276;-72
2021/12/13 04:28:30;;;;;;;;;;;;;;;;;;5103467;28;19920;-71
2021/12/13 04:30:56;;;;;;;;;;;;;;;;;;5103887;28;19919;-72
2021/12/13 04:33:22;;;;;;;;;;;;;;;;;;5112443;28;20395;-72
2021/12/13 04:35:48;;;;;;;;;;;;;;;;;;5112762;28;20297;-72
2021/12/13 04:38:17;;;;;;;;;;;;;;;;;;5112707;28;20002;-72
2021/12/13 04:40:42;;;;;;;;;;;;;;;;;;5112894;28;19960;-72
2021/12/13 04:43:08;;;;;;;;;;;;;;;;;;5094498;28;19912;-72
2021/12/13 04:45:34;;;;;;;;;;;;;;;;;;5112882;28;19908;-72
2021/12/13 04:48:00;;;;;;;;;;;;;;;;;;5115080;28;20364;-72
2021/12/13 04:50:26;;;;;;;;;;;;;;;;;;5116466;28;19908;-72
2021/12/13 04:52:52;;;;;;;;;;;;;;;;;;5116159;28;19915;-72
2021/12/13 04:55:17;;;;;;;;;;;;;;;;;;5116080;28;19911;-72
2021/12/13 04:57:43;;;;;;;;;;;;;;;;;;5098016;28;19965;-72
2021/12/13 05:00:09;;;;;;;;;;;;;;;;;;5116375;28;19915;-72
2021/12/13 05:02:35;;;;;;;;;;;;;;;;;;5116061;28;20318;-72
2021/12/13 05:05:01;;;;;;;;;;;;;;;;;;5116186;28;19911;-72
2021/12/13 05:07:27;;;;;;;;;;;;;;;;;;5115972;28;19930;-72
2021/12/13 05:09:53;;;;;;;;;;;;;;;;;;5097435;28;19978;-72
2021/12/13 05:12:21;;;;;;;;;;;;;;;;;;5115992;28;19923;-72
2021/12/13 05:14:47;;;;;;;;;;;;;;;;;;5115959;28;19908;-70
2021/12/13 05:17:13;;;;;;;;;;;;;;;;;;5115998;28;19910;-71
2021/12/13 05:19:39;;;;;;;;;;;;;;;;;;5115385;28;19908;-71
2021/12/13 05:22:05;;;;;;;;;;;;;;;;;;5115612;28;19904;-71
2021/12/13 05:24:31;;;;;;;;;;;;;;;;;;5115695;28;19957;-71
2021/12/13 05:26:56;;;;;;;;;;;;;;;;;;5115816;28;19915;-71
2021/12/13 05:29:22;;;;;;;;;;;;;;;;;;5115689;28;20370;-72
2021/12/13 05:31:48;;;;;;;;;;;;;;;;;;5115575;28;19978;-71
2021/12/13 05:34:14;;;;;;;;;;;;;;;;;;5097283;28;19912;-71
2021/12/13 05:36:42;;;;;;;;;;;;;;;;;;5115456;28;20351;-72
2021/12/13 05:39:08;;;;;;;;;;;;;;;;;;5115571;28;19908;-71
2021/12/13 05:41:34;;;;;;;;;;;;;;;;;;5114685;28;20248;-71
2021/12/13 05:43:59;;;;;;;;;;;;;;;;;;5097238;28;19915;-71
2021/12/13 05:46:25;;;;;;;;;;;;;;;;;;5115579;28;20360;-72
2021/12/13 05:48:51;;;;;;;;;;;;;;;;;;5115248;28;19919;-71
2021/12/13 05:51:17;;;;;;;;;;;;;;;;;;5115059;28;19922;-72
2021/12/13 05:53:43;;;;;;;;;;;;;;;;;;5097002;28;20445;-71
2021/12/13 05:56:09;;;;;;;;;;;;;;;;;;5115215;28;19908;-71
2021/12/13 05:58:35;;;;;;;;;;;;;;;;;;5114679;28;19908;-71
2021/12/13 06:01:00;;;;;;;;;;;;;;;;;;5114935;28;19911;-71
2021/12/13 06:03:26;;;;;;;;;;;;;;;;;;5115017;28;19915;-72
2021/12/13 06:05:52;;;;;;;;;;;;;;;;;;5096694;28;20378;-71
2021/12/13 06:08:18;;;;;;;;;;;;;;;;;;5114975;28;20013;-72
2021/12/13 06:10:44;;;;;;;;;;;;;;;;;;5114838;28;19963;-72
2021/12/13 06:13:14;;;;;;;;;;;;;;;;;;5114747;28;19915;-72
2021/12/13 06:15:40;;;;;;;;;;;;;;;;;;5114504;28;20385;-72
2021/12/13 06:18:06;;;;;;;;;;;;;;;;;;5114493;28;19907;-72
2021/12/13 06:20:32;;;;;;;;;;;;;;;;;;5114401;28;19907;-72
2021/12/13 06:22:58;;;;;;;;;;;;;;;;;;5115018;28;19999;-72
2021/12/13 06:25:24;;;;;;;;;;;;;;;;;;5114510;28;19908;-72
2021/12/13 06:27:50;;;;;;;;;;;;;;;;;;5100243;28;20273;-72
2021/12/13 06:30:16;;;;;;;;;;;;;;;;;;5093966;28;19921;-72
2021/12/13 06:32:42;;;;;;;;;;;;;;;;;;5093859;28;19999;-72
2021/12/13 06:35:08;;;;;;;;;;;;;;;;;;5075637;28;19912;-72
2021/12/13 06:37:35;;;;;;;;;;;;;;;;;;5075842;28;19923;-72
2021/12/13 06:40:01;;;;;;;;;;;;;;;;;;5093893;28;20364;-72
2021/12/13 06:42:27;;;;;;;;;;;;;;;;;;5093865;28;20002;-72
2021/12/13 06:44:53;;;;;;;;;;;;;;;;;;5093471;28;20379;-72
2021/12/13 06:47:19;;;;;;;;;;;;;;;;;;5093822;28;19995;-71
2021/12/13 06:49:45;;;;;;;;;;;;;;;;;;5075406;28;19912;-71
2021/12/13 06:52:10;;;;;;;;;;;;;;;;;;5093573;28;19927;-72
2021/12/13 06:54:36;;;;;;;;;;;;;;;;;;5093664;28;19909;-71
2021/12/13 06:57:02;;;;;;;;;;;;;;;;;;5092997;28;20360;-71
2021/12/13 06:59:28;;;;;;;;;;;;;;;;;;5093244;28;19963;-71
2021/12/13 07:01:54;;;;;;;;;;;;;;;;;;5093471;28;19918;-71
2021/12/13 07:04:20;;;;;;;;;;;;;;;;;;5093102;28;19912;-71
2021/12/13 07:06:45;;;;;;;;;;;;;;;;;;5075362;28;19909;-71
2021/12/13 07:09:11;;;;;;;;;;;;;;;;;;5093016;28;20336;-71
2021/12/13 07:11:37;;;;;;;;;;;;;;;;;;5074959;28;19920;-71
2021/12/13 07:14:03;;;;;;;;;;;;;;;;;;5092782;28;19908;-72
2021/12/13 07:16:29;;;;;;;;;;;;;;;;;;5074634;28;19908;-71
2021/12/13 07:18:57;;;;;;;;;;;;;;;;;;5093210;28;19912;-71
2021/12/13 07:21:23;;;;;;;;;;;;;;;;;;5092918;28;19912;-71
2021/12/13 07:23:49;;;;;;;;;;;;;;;;;;5093070;28;19908;-71
2021/12/13 07:26:15;;;;;;;;;;;;;;;;;;5074735;28;20368;-72
2021/12/13 07:28:41;;;;;;;;;;;;;;;;;;5074658;28;19912;-71
2021/12/13 07:31:07;;;;;;;;;;;;;;;;;;5092473;28;19915;-71
2021/12/13 07:33:33;;;;;;;;;;;;;;;;;;5092605;28;19916;-71
2021/12/13 07:35:58;;;;;;;;;;;;;;;;;;5092202;28;19912;-71
2021/12/13 07:38:28;;;;;;;;;;;;;;;;;;5092629;28;19912;-71
2021/12/13 07:40:54;;;;;;;;;;;;;;;;;;5093048;28;19915;-71
2021/12/13 07:43:20;;;;;;;;;;;;;;;;;;5093017;28;19909;-72
2021/12/13 07:45:46;;;;;;;;;;;;;;;;;;5092475;28;20415;-71
2021/12/13 07:48:11;;;;;;;;;;;;;;;;;;5092546;28;19908;-71
2021/12/13 07:50:37;;;;;;;;;;;;;;;;;;5093065;28;19908;-71
2021/12/13 07:53:03;;;;;;;;;;;;;;;;;;5092901;28;20372;-71
2021/12/13 07:55:29;;;;;;;;;;;;;;;;;;5093140;28;19966;-71
2021/12/13 07:57:55;;;;;;;;;;;;;;;;;;5092974;28;19958;-72
2021/12/13 08:00:21;;;;;;;;;;;;;;;;;;5092638;28;20380;-72
2021/12/13 08:02:47;;;;;;;;;;;;;;;;;;5087600;28;19955;-72
2021/12/13 08:05:13;;;;;;;;;;;;;;;;;;5092572;28;19912;-72
2021/12/13 08:07:39;;;;;;;;;;;;;;;;;;5092493;28;19908;-72
2021/12/13 08:10:05;;;;;;;;;;;;;;;;;;5092218;28;19928;-72
2021/12/13 08:12:31;;;;;;;;;;;;;;;;;;5091985;28;20023;-72
2021/12/13 08:14:57;;;;;;;;;;;;;;;;;;5092809;28;19916;-71
2021/12/13 08:17:23;;;;;;;;;;;;;;;;;;5092499;28;19915;-71
2021/12/13 08:19:49;;;;;;;;;;;;;;;;;;5092613;28;19908;-72
2021/12/13 08:22:15;;;;;;;;;;;;;;;;;;5095481;28;20477;-71
2021/12/13 08:24:41;;;;;;;;;;;;;;;;;;5096569;28;19930;-72
2021/12/13 08:27:07;;;;;;;;;;;;;;;;;;5096571;28;20368;-72
2021/12/13 08:29:33;;;;;;;;;;;;;;;;;;5096440;28;19904;-72
2021/12/13 08:31:58;;;;;;;;;;;;;;;;;;5096072;28;20364;-71
2021/12/13 08:34:24;;;;;;;;;;;;;;;;;;5096300;28;19912;-71
2021/12/13 08:36:51;;;;;;;;;;;;;;;;;;5096334;28;19908;-71
2021/12/13 08:39:17;;;;;;;;;;;;;;;;;;5096421;28;19911;-72
2021/12/13 08:41:43;;;;;;;;;;;;;;;;;;5077980;28;19908;-71
2021/12/13 08:44:08;;;;;;;;;;;;;;;;;;5096165;28;19912;-71
2021/12/13 08:46:34;;;;;;;;;;;;;;;;;;5096195;28;19912;-71
2021/12/13 08:49:00;;;;;;;;;;;;;;;;;;5077718;28;19912;-71
2021/12/13 08:51:26;;;;;;;;;;;;;;;;;;5096037;28;20049;-72
2021/12/13 08:53:52;;;;;;;;;;;;;;;;;;5077932;28;19908;-71
2021/12/13 08:56:21;;;;;;;;;;;;;;;;;;5095613;28;19995;-72
2021/12/13 08:58:46;;;;;;;;;;;;;;;;;;5095933;28;19908;-71
2021/12/13 09:01:13;;;;;;;;;;;;;;;;;;5077430;28;19981;-71
2021/12/13 09:03:39;;;;;;;;;;;;;;;;;;5095938;28;19912;-71
2021/12/13 09:06:04;;;;;;;;;;;;;;;;;;5095925;28;20439;-71
2021/12/13 09:08:30;;;;;;;;;;;;;;;;;;5077608;28;19912;-71
2021/12/13 09:10:56;;;;;;;;;;;;;;;;;;5095522;28;19920;-71
2021/12/13 09:13:22;;;;;;;;;;;;;;;;;;5095538;28;20329;-71
2021/12/13 09:15:48;;;;;;;;;;;;;;;;;;5095504;28;19908;-71
2021/12/13 09:18:14;;;;;;;;;;;;;;;;;;5095722;28;19912;-71
2021/12/13 09:20:41;;;;;;;;;;;;;;;;;;5095544;28;20011;-71
2021/12/13 09:23:06;;;;;;;;;;;;;;;;;;5095576;28;19908;-71
2021/12/13 09:25:32;;;;;;;;;;;;;;;;;;5095282;28;19915;-71
2021/12/13 09:28:01;;;;;;;;;;;;;;;;;;5094894;28;19915;-71
2021/12/13 09:30:26;;;;;;;;;;;;;;;;;;5095300;28;19915;-72
2021/12/13 09:32:52;;;;;;;;;;;;;;;;;;5092867;28;19916;-71
2021/12/13 09:35:18;;;;;;;;;;;;;;;;;;5095310;28;19908;-71
2021/12/13 09:37:44;;;;;;;;;;;;;;;;;;5095252;28;19995;-71
2021/12/13 09:40:10;;;;;;;;;;;;;;;;;;5095058;28;19954;-72
2021/12/13 09:42:36;;;;;;;;;;;;;;;;;;5094971;28;20008;-71
2021/12/13 09:45:07;;;;;;;;;;;;;;;;;;5076842;28;19919;-71
2021/12/13 09:47:33;;;;;;;;;;;;;;;;;;5077283;28;19937;-71
2021/12/13 09:49:59;;;;;;;;;;;;;;;;;;5076677;28;19947;-71
2021/12/13 09:52:25;;;;;;;;;;;;;;;;;;5076732;28;19916;-71
2021/12/13 09:54:51;;;;;;;;;;;;;;;;;;5094681;28;19998;-70
2021/12/13 09:57:17;;;;;;;;;;;;;;;;;;5094761;28;19908;-71
2021/12/13 09:59:42;;;;;;;;;;;;;;;;;;5094641;28;19908;-71
2021/12/13 10:02:08;;;;;;;;;;;;;;;;;;5094699;28;19908;-71
2021/12/13 10:04:34;;;;;;;;;;;;;;;;;;5094788;28;20368;-71
2021/12/13 10:07:00;;;;;;;;;;;;;;;;;;5076512;28;19908;-71
2021/12/13 10:09:26;;;;;;;;;;;;;;;;;;5093988;28;19950;-71
2021/12/13 10:11:52;;;;;;;;;;;;;;;;;;5094402;28;20455;-71
2021/12/13 10:14:18;;;;;;;;;;;;;;;;;;5094472;28;19908;-70
2021/12/13 10:16:44;;;;;;;;;;;;;;;;;;5094483;28;20290;-70
2021/12/13 10:19:10;;;;;;;;;;;;;;;;;;5094424;28;19995;-71
2021/12/13 10:21:36;;;;;;;;;;;;;;;;;;5094326;28;20424;-71
2021/12/13 10:24:02;;;;;;;;;;;;;;;;;;5094359;28;19955;-71
2021/12/13 10:26:28;;;;;;;;;;;;;;;;;;5076158;28;19909;-71
2021/12/13 10:28:54;;;;;;;;;;;;;;;;;;5075575;28;19908;-71
2021/12/13 10:31:20;;;;;;;;;;;;;;;;;;5093969;28;20272;-71
2021/12/13 10:33:46;;;;;;;;;;;;;;;;;;5094041;28;19916;-71
2021/12/13 10:36:12;;;;;;;;;;;;;;;;;;5094111;28;20360;-71
2021/12/13 10:38:38;;;;;;;;;;;;;;;;;;5094007;28;19916;-71
2021/12/13 10:41:03;;;;;;;;;;;;;;;;;;5093900;28;19908;-71
2021/12/13 10:43:29;;;;;;;;;;;;;;;;;;5093899;28;19954;-71
2021/12/13 10:45:55;;;;;;;;;;;;;;;;;;5093945;28;20275;-71
2021/12/13 10:48:22;;;;;;;;;;;;;;;;;;5093954;28;20009;-71
2021/12/13 10:50:48;;;;;;;;;;;;;;;;;;5093836;28;20340;-71
2021/12/13 10:53:14;;;;;;;;;;;;;;;;;;5093421;28;19923;-71
2021/12/13 10:55:44;;;;;;;;;;;;;;;;;;5093781;28;19912;-71
2021/12/13 10:58:09;;;;;;;;;;;;;;;;;;5093627;28;19909;-71
2021/12/13 11:00:36;;;;;;;;;;;;;;;;;;5093721;28;20033;-72
2021/12/13 11:03:02;;;;;;;;;;;;;;;;;;5093597;28;20363;-71
2021/12/13 11:05:28;;;;;;;;;;;;;;;;;;5093578;28;19915;-71
2021/12/13 11:07:54;;;;;;;;;;;;;;;;;;5093454;28;20368;-72
2021/12/13 11:10:20;;;;;;;;;;;;;;;;;;5093126;28;19927;-71
2021/12/13 11:12:46;;;;;;;;;;;;;;;;;;5093314;28;20448;-71
2021/12/13 11:15:11;;;;;;;;;;;;;;;;;;5093613;28;19912;-71
2021/12/13 11:17:40;;;;;;;;;;;;;;;;;;5074975;28;21195;-71
2021/12/13 11:20:06;;;;;;;;;;;;;;;;;;5093302;28;19961;-71
2021/12/13 11:22:32;;;;;;;;;;;;;;;;;;5093146;28;19908;-71
2021/12/13 11:24:58;;;;;;;;;;;;;;;;;;5075159;28;20006;-71
2021/12/13 11:27:23;;;;;;;;;;;;;;;;;;5093338;28;19912;-71
2021/12/13 11:29:49;;;;;;;;;;;;;;;;;;5093201;28;19947;-71
2021/12/13 11:32:15;;;;;;;;;;;;;;;;;;5092916;28;19919;-71
2021/12/13 11:34:41;;;;;;;;;;;;;;;;;;5093120;28;20399;-71
2021/12/13 11:37:07;;;;;;;;;;;;;;;;;;5074952;28;19951;-71
2021/12/13 11:39:33;;;;;;;;;;;;;;;;;;5093178;28;19908;-71
2021/12/13 11:41:59;;;;;;;;;;;;;;;;;;5075097;28;19933;-71
2021/12/13 11:44:25;;;;;;;;;;;;;;;;;;5093127;28;19919;-71
2021/12/13 11:46:51;;;;;;;;;;;;;;;;;;5093119;28;19908;-70
2021/12/13 11:49:17;;;;;;;;;;;;;;;;;;5092961;28;19908;-71
2021/12/13 11:51:43;;;;;;;;;;;;;;;;;;5092853;28;19919;-71
2021/12/13 11:54:09;;;;;;;;;;;;;;;;;;5092529;28;19937;-71
2021/12/13 11:56:35;;;;;;;;;;;;;;;;;;5094766;28;19912;-71
2021/12/13 11:59:01;;;;;;;;;;;;;;;;;;5097155;28;19913;-71
2021/12/13 12:01:27;;;;;;;;;;;;;;;;;;5097010;28;19918;-71
2021/12/13 12:03:53;;;;;;;;;;;;;;;;;;5078868;28;20216;-71
2021/12/13 12:06:19;;;;;;;;;;;;;;;;;;5096893;28;20370;-71
2021/12/13 12:08:45;;;;;;;;;;;;;;;;;;5096662;28;20288;-71
2021/12/13 12:11:11;;;;;;;;;;;;;;;;;;5096505;28;19912;-71
2021/12/13 12:13:37;;;;;;;;;;;;;;;;;;5096671;28;19916;-71
2021/12/13 12:16:02;;;;;;;;;;;;;;;;;;5096789;28;19908;-71
2021/12/13 12:18:28;;;;;;;;;;;;;;;;;;5078476;28;19957;-71
2021/12/13 12:20:55;;;;;;;;;;;;;;;;;;5096591;28;20390;-71
2021/12/13 12:23:21;;;;;;;;;;;;;;;;;;5097016;28;19908;-71
2021/12/13 12:25:47;;;;;;;;;;;;;;;;;;5096335;28;19908;-71
2021/12/13 12:28:13;;;;;;;;;;;;;;;;;;5096604;28;19912;-71
2021/12/13 12:30:38;;;;;;;;;;;;;;;;;;5096550;28;20352;-71
2021/12/13 12:33:07;;;;;;;;;;;;;;;;;;5096162;28;19916;-71
2021/12/13 12:35:32;;;;;;;;;;;;;;;;;;5096379;28;19908;-71
2021/12/13 12:38:03;;;;;;;;;;;;;;;;;;5078167;28;19908;-71
2021/12/13 12:40:28;;;;;;;;;;;;;;;;;;5096416;28;19962;-71
2021/12/13 12:42:54;;;;;;;;;;;;;;;;;;5096282;28;20322;-71
2021/12/13 12:45:20;;;;;;;;;;;;;;;;;;5096377;28;19915;-71
2021/12/13 12:47:46;;;;;;;;;;;;;;;;;;5077837;28;19939;-71
2021/12/13 12:50:12;;;;;;;;;;;;;;;;;;5096060;28;19912;-71
2021/12/13 12:52:38;;;;;;;;;;;;;;;;;;5095936;28;19916;-71
2021/12/13 12:55:04;;;;;;;;;;;;;;;;;;5096140;28;19908;-71
2021/12/13 12:57:29;;;;;;;;;;;;;;;;;;5077912;28;19908;-71
2021/12/13 12:59:55;;;;;;;;;;;;;;;;;;5096032;28;19908;-71
2021/12/13 13:02:21;;;;;;;;;;;;;;;;;;5095371;28;19916;-71
2021/12/13 13:04:48;;;;;;;;;;;;;;;;;;5095338;28;19923;-71
2021/12/13 13:07:14;;;;;;;;;;;;;;;;;;5094725;28;19997;-71
2021/12/13 13:09:40;;;;;;;;;;;;;;;;;;5094825;28;19920;-71
2021/12/13 13:12:07;;;;;;;;;;;;;;;;;;5095704;28;19911;-71
2021/12/13 13:14:33;;;;;;;;;;;;;;;;;;5095714;28;19999;-71
2021/12/13 13:16:59;;;;;;;;;;;;;;;;;;5095651;28;20058;-71
2021/12/13 13:19:25;;;;;;;;;;;;;;;;;;5077485;28;19915;-71
2021/12/13 13:21:50;;;;;;;;;;;;;;;;;;5095446;28;19920;-71
2021/12/13 13:24:16;;;;;;;;;;;;;;;;;;5095443;28;19999;-71
2021/12/13 13:26:42;;;;;;;;;;;;;;;;;;5095587;28;19908;-71
2021/12/13 13:29:11;;;;;;;;;;;;;;;;;;5095396;28;19915;-71
2021/12/13 13:31:37;;;;;;;;;;;;;;;;;;5095163;28;19959;-71
2021/12/13 13:34:02;;;;;;;;;;;;;;;;;;5077219;28;19919;-71
2021/12/13 13:36:28;;;;;;;;;;;;;;;;;;5095264;28;19908;-71
2021/12/13 13:38:54;;;;;;;;;;;;;;;;;;5095260;28;19912;-71
2021/12/13 13:41:21;;;;;;;;;;;;;;;;;;5094374;28;19958;-71
2021/12/13 13:43:47;;;;;;;;;;;;;;;;;;5094590;28;19908;-71
2021/12/13 13:46:12;;;;;;;;;;;;;;;;;;5094527;28;19915;-71
2021/12/13 13:48:38;;;;;;;;;;;;;;;;;;5094466;28;19908;-71
2021/12/13 13:51:04;;;;;;;;;;;;;;;;;;5094798;28;20371;-71
2021/12/13 13:53:30;;;;;;;;;;;;;;;;;;5094901;28;19916;-71
2021/12/13 13:55:56;;;;;;;;;;;;;;;;;;5094921;28;19908;-71
2021/12/13 13:58:22;;;;;;;;;;;;;;;;;;5094817;28;20364;-71
2021/12/13 14:00:47;;;;;;;;;;;;;;;;;;5076545;28;19931;-71
2021/12/13 14:03:13;;;;;;;;;;;;;;;;;;5076159;28;19953;-71
2021/12/13 14:05:39;;;;;;;;;;;;;;;;;;5094752;28;19908;-71
2021/12/13 14:08:07;;;;;;;;;;;;;;;;;;5094634;28;20364;-71
2021/12/13 14:10:32;;;;;;;;;;;;;;;;;;5094226;28;19959;-71
2021/12/13 14:12:58;;;;;;;;;;;;;;;;;;5093936;28;19955;-71
2021/12/13 14:15:24;;;;;;;;;;;;;;;;;;5093770;28;19912;-71
2021/12/13 14:17:50;;;;;;;;;;;;;;;;;;5093980;28;19908;-71
2021/12/13 14:20:16;;;;;;;;;;;;;;;;;;5093677;28;20370;-71
2021/12/13 14:22:42;;;;;;;;;;;;;;;;;;5093784;28;19912;-71
2021/12/13 14:25:08;;;;;;;;;;;;;;;;;;5093945;28;19908;-71
2021/12/13 14:27:34;;;;;;;;;;;;;;;;;;5093775;28;20380;-71
2021/12/13 14:30:00;;;;;;;;;;;;;;;;;;5093584;28;19951;-71
2021/12/13 14:32:26;;;;;;;;;;;;;;;;;;5093265;28;20356;-71
2021/12/13 14:34:51;;;;;;;;;;;;;;;;;;5093391;28;19916;-71
2021/12/13 14:37:17;;;;;;;;;;;;;;;;;;5075197;28;19913;-71
2021/12/13 14:39:44;;;;;;;;;;;;;;;;;;5093592;28;19908;-71
2021/12/13 14:42:10;;;;;;;;;;;;;;;;;;5093583;28;19908;-71
2021/12/13 14:44:36;;;;;;;;;;;;;;;;;;5075351;28;19915;-71
2021/12/13 14:47:02;;;;;;;;;;;;;;;;;;5094017;28;19908;-71
2021/12/13 14:49:28;;;;;;;;;;;;;;;;;;5093798;28;19912;-71
2021/12/13 14:51:54;;;;;;;;;;;;;;;;;;5075805;28;19912;-71
2021/12/13 14:54:20;;;;;;;;;;;;;;;;;;5093904;28;19914;-71
2021/12/13 14:56:46;;;;;;;;;;;;;;;;;;5093457;28;20245;-71
2021/12/13 14:59:12;;;;;;;;;;;;;;;;;;5093250;28;19912;-71
2021/12/13 15:01:37;;;;;;;;;;;;;;;;;;5093140;28;19912;-71
2021/12/13 15:04:04;;;;;;;;;;;;;;;;;;5093153;28;20310;-71
2021/12/13 15:06:30;;;;;;;;;;;;;;;;;;5075165;28;19908;-71
2021/12/13 15:08:56;;;;;;;;;;;;;;;;;;5074772;28;19958;-71
2021/12/13 15:11:22;;;;;;;;;;;;;;;;;;5093414;28;19916;-71
2021/12/13 15:13:48;;;;;;;;;;;;;;;;;;5093369;28;20376;-71
2021/12/13 15:16:14;;;;;;;;;;;;;;;;;;5092780;28;19912;-71
2021/12/13 15:18:40;;;;;;;;;;;;;;;;;;5074855;28;20351;-71
2021/12/13 15:21:06;;;;;;;;;;;;;;;;;;5075113;28;19915;-72
2021/12/13 15:23:32;;;;;;;;;;;;;;;;;;5092991;28;19920;-72
2021/12/13 15:25:58;;;;;;;;;;;;;;;;;;5092830;28;19908;-72
2021/12/13 15:28:24;;;;;;;;;;;;;;;;;;5093111;28;19912;-72
2021/12/13 15:30:50;;;;;;;;;;;;;;;;;;5074319;28;19908;-71
2021/12/13 15:33:16;;;;;;;;;;;;;;;;;;5092833;28;19923;-71
2021/12/13 15:35:42;;;;;;;;;;;;;;;;;;5092556;28;19916;-72
2021/12/13 15:38:09;;;;;;;;;;;;;;;;;;5092653;28;20003;-72
2021/12/13 15:40:35;;;;;;;;;;;;;;;;;;5092653;28;20011;-72
2021/12/13 15:43:00;;;;;;;;;;;;;;;;;;5092620;28;19943;-71
2021/12/13 15:45:26;;;;;;;;;;;;;;;;;;5092686;28;19919;-71
2021/12/13 15:50:38;;;;;;;;;;;;;;;;;;5061379;28;20010;-72
2021/12/13 15:53:04;;;;;;;;;;;;;;;;;;5092774;28;20019;-72
2021/12/13 15:55:30;;;;;;;;;;;;;;;;;;5093008;28;19961;-71
2021/12/13 15:57:57;;;;;;;;;;;;;;;;;;5092878;28;19908;-71
2021/12/13 16:00:23;;;;;;;;;;;;;;;;;;5092746;28;19924;-71
2021/12/13 16:02:49;;;;;;;;;;;;;;;;;;5074306;28;20303;-70
2021/12/13 16:05:15;;;;;;;;;;;;;;;;;;5092634;28;20007;-71
2021/12/13 16:07:41;;;;;;;;;;;;;;;;;;5092848;28;20348;-71
2021/12/13 16:10:06;;;;;;;;;;;;;;;;;;5092486;28;19927;-71
2021/12/13 16:12:32;;;;;;;;;;;;;;;;;;5092262;28;19916;-70
2021/12/13 16:14:58;;;;;;;;;;;;;;;;;;5092767;28;19947;-72
2021/12/13 16:17:24;;;;;;;;;;;;;;;;;;5092763;28;20276;-69
2021/12/13 16:19:50;;;;;;;;;;;;;;;;;;5075519;28;19915;-70
2021/12/13 16:22:16;;;;;;;;;;;;;;;;;;5071138;28;19909;-70
2021/12/13 16:24:42;;;;;;;;;;;;;;;;;;5072526;28;19916;-75
2021/12/13 16:27:07;;;;;;;;;;;;;;;;;;5070737;28;19915;-74
2021/12/13 16:29:33;;;;;;;;;;;;;;;;;;5071196;28;20421;-70
2021/12/13 16:31:59;;;;;;;;;;;;;;;;;;5072450;28;19934;-72
2021/12/13 16:34:25;;;;;;;;;;;;;;;;;;5072251;28;19958;-70
2021/12/13 16:36:51;;;;;;;;;;;;;;;;;;5072263;28;19915;-72
2021/12/13 16:39:17;;;;;;;;;;;;;;;;;;5072248;28;19916;-71
2021/12/13 16:41:43;;;;;;;;;;;;;;;;;;5071021;28;19908;-72
2021/12/13 16:44:09;;;;;;;;;;;;;;;;;;5076019;28;20277;-73
2021/12/13 16:46:35;;;;;;;;;;;;;;;;;;5074691;28;19908;-81
2021/12/13 16:49:00;;;;;;;;;;;;;;;;;;5076044;28;19909;-80